createdAt,value
2019-02-28T00:01:58.738Z,60.46
2019-02-28T00:04:32.746Z,60.50
2019-02-28T00:07:01.041Z,60.54
2019-02-28T00:09:30.100Z,60.56
2019-02-28T00:11:59.201Z,60.58
2019-02-28T00:14:28.501Z,60.69
2019-02-28T00:16:57.771Z,60.65
2019-02-28T00:19:27.044Z,60.69
2019-02-28T00:21:56.148Z,60.75
2019-02-28T00:24:27.197Z,60.76
2019-02-28T00:26:55.954Z,60.78
2019-02-28T00:29:24.978Z,60.84
2019-02-28T00:31:54.200Z,60.85
2019-02-28T00:34:23.486Z,60.87
2019-02-28T00:36:53.351Z,60.91
2019-02-28T00:39:23.088Z,60.94
2019-02-28T00:41:52.168Z,60.96
2019-02-28T00:44:22.421Z,60.98
2019-02-28T00:46:51.388Z,61.03
2019-02-28T00:49:20.411Z,61.05
2019-02-28T00:51:49.944Z,61.08
2019-02-28T00:54:18.898Z,61.08
2019-02-28T00:56:51.619Z,61.10
2019-02-28T00:59:19.080Z,61.12
2019-02-28T01:01:48.087Z,61.14
2019-02-28T01:04:30.708Z,61.16
2019-02-28T01:07:08.867Z,61.20
2019-02-28T01:09:38.087Z,61.21
2019-02-28T01:12:07.203Z,61.27
2019-02-28T01:14:37.679Z,61.27
2019-02-28T01:17:06.729Z,61.31
2019-02-28T01:19:36.062Z,61.35
2019-02-28T01:22:05.220Z,61.36
2019-02-28T01:24:35.418Z,61.38
2019-02-28T01:27:04.579Z,61.41
2019-02-28T01:29:35.694Z,61.41
2019-02-28T01:32:07.632Z,61.44
2019-02-28T01:34:36.663Z,61.45
2019-02-28T01:37:07.668Z,61.51
2019-02-28T01:39:36.674Z,61.50
2019-02-28T01:42:05.737Z,61.60
2019-02-28T01:44:35.825Z,61.60
2019-02-28T01:47:07.644Z,61.63
2019-02-28T01:49:36.735Z,61.66
2019-02-28T01:52:09.803Z,61.67
2019-02-28T01:54:47.779Z,61.70
2019-02-28T01:57:18.624Z,61.74
2019-02-28T01:59:49.062Z,61.76
2019-02-28T02:02:18.625Z,61.79
2019-02-28T02:04:48.020Z,61.78
2019-02-28T02:07:21.398Z,61.79
2019-02-28T02:09:50.740Z,61.82
2019-02-28T02:12:20.220Z,61.88
2019-02-28T02:14:50.141Z,61.85
2019-02-28T02:17:19.607Z,61.89
2019-02-28T02:19:49.354Z,61.94
2019-02-28T02:22:19.340Z,61.96
2019-02-28T02:24:50.128Z,61.98
2019-02-28T02:27:20.380Z,62.01
2019-02-28T02:29:50.908Z,62.03
2019-02-28T02:32:20.563Z,62.04
2019-02-28T02:34:50.356Z,62.06
2019-02-28T02:37:20.274Z,62.07
2019-02-28T02:39:51.273Z,62.04
2019-02-28T02:42:21.448Z,62.07
2019-02-28T02:44:50.939Z,62.05
2019-02-28T02:47:20.373Z,62.07
2019-02-28T02:49:56.181Z,62.06
2019-02-28T02:52:25.844Z,62.07
2019-02-28T02:54:53.118Z,62.09
2019-02-28T02:57:22.659Z,62.12
2019-02-28T02:59:52.038Z,62.10
2019-02-28T03:02:22.147Z,62.13
2019-02-28T03:04:57.917Z,62.16
2019-02-28T03:07:24.569Z,62.17
2019-02-28T03:09:53.708Z,62.19
2019-02-28T03:12:25.128Z,62.23
2019-02-28T03:14:59.567Z,62.25
2019-02-28T03:17:37.972Z,62.28
2019-02-28T03:20:09.605Z,62.26
2019-02-28T03:22:46.795Z,62.26
2019-02-28T03:25:16.536Z,62.28
2019-02-28T03:27:55.052Z,62.30
2019-02-28T03:30:28.483Z,62.30
2019-02-28T03:32:51.226Z,62.34
2019-02-28T03:35:21.131Z,62.36
2019-02-28T03:37:54.464Z,62.35
2019-02-28T03:40:23.863Z,62.38
2019-02-28T03:42:53.271Z,62.42
2019-02-28T03:45:23.019Z,62.44
2019-02-28T03:47:58.411Z,62.43
2019-02-28T03:50:23.861Z,62.46
2019-02-28T03:52:54.011Z,62.49
2019-02-28T03:55:23.952Z,62.49
2019-02-28T03:57:53.315Z,62.52
2019-02-28T04:00:22.700Z,62.54
2019-02-28T04:02:56.631Z,62.57
2019-02-28T04:05:28.136Z,62.58
2019-02-28T04:07:55.007Z,62.60
2019-02-28T04:10:24.551Z,62.61
2019-02-28T04:12:57.761Z,62.64
2019-02-28T04:15:27.043Z,62.67
2019-02-28T04:17:56.233Z,62.67
2019-02-28T04:20:25.398Z,62.70
2019-02-28T04:22:58.866Z,62.72
2019-02-28T04:25:25.666Z,62.73
2019-02-28T04:27:54.927Z,62.76
2019-02-28T04:30:24.236Z,62.76
2019-02-28T04:32:54.414Z,62.79
2019-02-28T04:35:25.507Z,62.83
2019-02-28T04:37:54.783Z,62.85
2019-02-28T04:40:26.906Z,62.86
2019-02-28T04:42:55.712Z,62.88
2019-02-28T04:45:26.186Z,62.89
2019-02-28T04:47:55.884Z,62.89
2019-02-28T04:50:25.109Z,62.94
2019-02-28T04:52:54.354Z,62.96
2019-02-28T04:55:23.641Z,63.01
2019-02-28T04:57:53.038Z,63.03
2019-02-28T05:00:22.842Z,63.03
2019-02-28T05:02:54.856Z,63.04
2019-02-28T05:05:23.367Z,63.05
2019-02-28T05:07:52.672Z,63.06
2019-02-28T05:10:22.215Z,63.06
2019-02-28T05:12:52.402Z,63.11
2019-02-28T05:15:21.850Z,63.09
2019-02-28T05:17:53.124Z,63.12
2019-02-28T05:20:22.518Z,63.16
2019-02-28T05:22:51.775Z,63.19
2019-02-28T05:25:20.859Z,63.23
2019-02-28T05:27:50.093Z,63.21
2019-02-28T05:30:19.940Z,63.25
2019-02-28T05:32:49.466Z,63.24
2019-02-28T05:35:25.151Z,63.24
2019-02-28T05:37:51.082Z,63.26
2019-02-28T05:40:25.506Z,63.30
2019-02-28T05:43:05.928Z,63.31
2019-02-28T05:45:36.008Z,63.33
2019-02-28T05:48:12.811Z,63.33
2019-02-28T05:50:44.345Z,63.36
2019-02-28T05:53:14.362Z,63.42
2019-02-28T05:55:44.763Z,63.43
2019-02-28T05:58:17.513Z,63.45
2019-02-28T06:00:46.097Z,63.45
2019-02-28T06:03:15.541Z,63.49
2019-02-28T06:05:46.429Z,63.48
2019-02-28T06:08:16.698Z,63.50
2019-02-28T06:10:47.148Z,63.50
2019-02-28T06:13:18.254Z,63.53
2019-02-28T06:15:48.148Z,63.56
2019-02-28T06:18:18.453Z,63.58
2019-02-28T06:20:50.977Z,63.59
2019-02-28T06:23:19.284Z,63.57
2019-02-28T06:25:48.707Z,63.66
2019-02-28T06:28:18.303Z,63.72
2019-02-28T06:30:47.851Z,63.71
2019-02-28T06:33:17.158Z,63.72
2019-02-28T06:35:49.581Z,63.78
2019-02-28T06:38:19.215Z,63.82
2019-02-28T06:40:49.155Z,63.85
2019-02-28T06:43:19.613Z,63.94
2019-02-28T06:45:49.140Z,63.92
2019-02-28T06:48:20.869Z,63.94
2019-02-28T06:50:49.138Z,63.96
2019-02-28T06:53:18.645Z,63.97
2019-02-28T06:55:48.196Z,63.96
2019-02-28T06:58:18.135Z,64.00
2019-02-28T07:00:48.097Z,64.03
2019-02-28T07:03:17.459Z,64.05
2019-02-28T07:05:46.470Z,64.03
2019-02-28T07:08:15.615Z,64.09
2019-02-28T07:10:48.552Z,64.12
2019-02-28T07:13:15.957Z,64.17
2019-02-28T07:15:45.099Z,64.21
2019-02-28T07:18:14.264Z,64.22
2019-02-28T07:20:43.261Z,64.26
2019-02-28T07:23:13.651Z,64.29
2019-02-28T07:25:44.281Z,64.33
2019-02-28T07:28:13.356Z,64.38
2019-02-28T07:30:42.413Z,64.44
2019-02-28T07:33:11.390Z,64.48
2019-02-28T07:35:43.088Z,64.46
2019-02-28T07:38:12.376Z,64.46
2019-02-28T07:40:41.492Z,64.47
2019-02-28T07:43:13.047Z,64.54
2019-02-28T07:45:41.737Z,64.53
2019-02-28T07:48:10.891Z,64.57
2019-02-28T07:50:40.078Z,64.63
2019-02-28T07:53:09.839Z,64.66
2019-02-28T07:55:39.154Z,64.69
2019-02-28T07:58:08.210Z,64.75
2019-02-28T08:00:37.328Z,64.80
2019-02-28T08:03:06.440Z,64.80
2019-02-28T08:05:35.630Z,64.83
2019-02-28T08:08:05.016Z,64.88
2019-02-28T08:10:34.273Z,64.89
2019-02-28T08:13:24.176Z,64.92
2019-02-28T08:15:56.229Z,64.92
2019-02-28T08:18:24.016Z,64.97
2019-02-28T08:20:53.035Z,65.00
2019-02-28T08:24:02.419Z,65.03
2019-02-28T08:26:53.587Z,65.11
2019-02-28T08:29:46.267Z,65.21
2019-02-28T08:32:13.002Z,65.20
2019-02-28T08:34:41.981Z,65.21
2019-02-28T08:37:11.188Z,65.19
2019-02-28T08:39:41.153Z,65.25
2019-02-28T08:42:11.236Z,65.28
2019-02-28T08:44:40.380Z,65.31
2019-02-28T08:47:09.461Z,65.33
2019-02-28T08:49:42.976Z,65.38
2019-02-28T08:52:09.665Z,65.41
2019-02-28T08:54:38.926Z,65.45
2019-02-28T08:57:08.137Z,65.51
2019-02-28T08:59:37.157Z,65.66
2019-02-28T09:02:06.346Z,65.65
2019-02-28T09:04:41.173Z,65.66
2019-02-28T09:07:06.803Z,65.60
2019-02-28T09:09:35.942Z,65.03
2019-02-28T09:12:05.299Z,64.83
2019-02-28T09:14:34.344Z,64.94
2019-02-28T09:17:03.361Z,65.19
2019-02-28T09:19:35.954Z,65.41
2019-02-28T09:22:03.426Z,65.58
2019-02-28T09:24:32.454Z,65.73
2019-02-28T09:27:04.066Z,65.82
2019-02-28T09:29:32.289Z,65.91
2019-02-28T09:32:01.516Z,65.99
2019-02-28T09:34:31.472Z,65.99
2019-02-28T09:37:00.667Z,66.08
2019-02-28T09:39:29.694Z,66.15
2019-02-28T09:41:58.839Z,66.16
2019-02-28T09:44:31.512Z,66.21
2019-02-28T09:47:00.085Z,66.27
2019-02-28T09:49:29.172Z,66.29
2019-02-28T09:51:58.383Z,66.31
2019-02-28T09:54:27.396Z,66.33
2019-02-28T09:56:56.469Z,66.34
2019-02-28T09:59:25.695Z,66.36
2019-02-28T10:02:01.466Z,66.39
2019-02-28T10:04:27.350Z,66.41
2019-02-28T10:06:56.975Z,66.42
2019-02-28T10:09:26.376Z,66.43
2019-02-28T10:11:55.555Z,66.46
2019-02-28T10:14:25.627Z,66.48
2019-02-28T10:16:55.771Z,66.53
2019-02-28T10:19:24.731Z,66.52
2019-02-28T10:21:53.898Z,66.54
2019-02-28T10:24:24.736Z,66.56
2019-02-28T10:26:53.867Z,66.54
2019-02-28T10:29:22.989Z,66.60
2019-02-28T10:31:52.056Z,66.68
2019-02-28T10:34:23.456Z,66.68
2019-02-28T10:36:52.953Z,66.69
2019-02-28T10:39:22.044Z,66.74
2019-02-28T10:41:51.059Z,66.72
2019-02-28T10:44:20.107Z,66.75
2019-02-28T10:46:50.302Z,66.80
2019-02-28T10:49:21.115Z,66.84
2019-02-28T10:51:50.875Z,66.83
2019-02-28T10:54:22.664Z,66.89
2019-02-28T10:56:52.013Z,66.91
2019-02-28T10:59:21.364Z,66.94
2019-02-28T11:01:52.170Z,66.92
2019-02-28T11:04:21.636Z,66.93
2019-02-28T11:06:50.921Z,66.96
2019-02-28T11:09:25.372Z,66.97
2019-02-28T11:11:54.194Z,67.00
2019-02-28T11:14:23.346Z,67.03
2019-02-28T11:16:59.153Z,67.01
2019-02-28T11:19:23.398Z,67.06
2019-02-28T11:21:52.639Z,67.03
2019-02-28T11:24:23.996Z,67.00
2019-02-28T11:26:55.558Z,67.03
2019-02-28T11:29:24.868Z,67.11
2019-02-28T11:31:55.176Z,67.11
2019-02-28T11:34:24.261Z,66.83
2019-02-28T11:36:53.406Z,66.13
2019-02-28T11:39:22.639Z,65.32
2019-02-28T11:41:52.593Z,65.18
2019-02-28T11:44:22.599Z,65.28
2019-02-28T11:49:34.968Z,65.59
2019-02-28T12:18:26.538Z,100.00
2019-02-28T16:22:52.087Z,65.46
2019-02-28T16:25:20.447Z,63.55
2019-02-28T16:27:49.452Z,64.24
2019-02-28T16:30:18.812Z,65.11
2019-02-28T16:32:49.115Z,65.81
2019-02-28T16:35:18.629Z,66.28
2019-02-28T16:37:47.613Z,66.60
2019-02-28T16:40:25.927Z,66.85
2019-02-28T16:42:51.353Z,67.04
2019-02-28T16:45:28.042Z,67.24
2019-02-28T16:47:59.528Z,67.43
2019-02-28T16:50:32.669Z,67.56
2019-02-28T16:53:01.939Z,67.68
2019-02-28T16:55:31.893Z,67.79
2019-02-28T16:58:01.180Z,67.91
2019-02-28T17:00:31.496Z,68.00
2019-02-28T17:03:07.331Z,68.09
2019-02-28T17:05:36.243Z,68.16
2019-02-28T17:08:07.323Z,68.21
2019-02-28T17:10:43.405Z,68.23
2019-02-28T17:13:42.884Z,68.29
2019-02-28T17:16:21.480Z,68.33
2019-02-28T17:18:53.508Z,68.40
2019-02-28T17:21:23.462Z,68.47
2019-02-28T17:23:52.782Z,68.52
2019-02-28T17:27:02.353Z,68.55
2019-02-28T17:30:11.034Z,68.62
2019-02-28T17:32:48.591Z,68.65
2019-02-28T17:35:17.917Z,68.65
2019-02-28T17:37:48.040Z,68.73
2019-02-28T17:40:17.322Z,68.77
2019-02-28T17:42:49.766Z,68.78
2019-02-28T17:45:26.978Z,68.84
2019-02-28T17:48:36.646Z,68.87
2019-02-28T17:51:18.832Z,68.93
2019-02-28T17:54:27.163Z,68.92
2019-02-28T17:57:41.649Z,68.97
2019-02-28T18:00:53.396Z,68.94
2019-02-28T18:04:04.384Z,68.94
2019-02-28T18:07:10.669Z,68.97
2019-02-28T18:10:15.878Z,68.95
2019-02-28T18:12:59.962Z,68.93
2019-02-28T18:16:25.468Z,68.94
2019-02-28T18:19:33.561Z,68.98
2019-02-28T18:26:14.255Z,69.00
2019-02-28T18:29:35.267Z,68.97
2019-02-28T18:32:04.982Z,69.04
2019-02-28T18:34:37.938Z,69.02
2019-02-28T18:37:11.834Z,69.05
2019-02-28T18:39:39.841Z,69.09
2019-02-28T18:43:27.012Z,69.12
2019-02-28T18:49:09.598Z,69.19
2019-02-28T18:51:41.913Z,69.22
2019-02-28T18:54:20.734Z,69.25
2019-02-28T19:00:59.445Z,69.24
2019-02-28T19:03:29.075Z,69.25
2019-02-28T19:05:59.331Z,69.26
2019-02-28T19:08:38.595Z,69.28
2019-02-28T19:11:08.792Z,69.33
2019-02-28T19:13:39.663Z,69.34
2019-02-28T19:16:12.510Z,69.37
2019-02-28T19:18:43.846Z,69.38
2019-02-28T19:21:17.821Z,69.40
2019-02-28T19:23:48.516Z,69.42
2019-02-28T19:26:25.147Z,69.45
2019-02-28T19:28:54.950Z,69.45
2019-02-28T19:31:24.753Z,69.45
2019-02-28T19:33:56.758Z,69.49
2019-02-28T19:36:30.759Z,69.49
2019-02-28T19:39:05.859Z,69.50
2019-02-28T19:41:41.880Z,69.51
2019-02-28T19:44:15.068Z,69.54
2019-02-28T19:46:44.990Z,69.54
2019-02-28T19:49:15.058Z,69.51
2019-02-28T19:51:46.167Z,69.51
2019-02-28T19:54:17.525Z,69.51
2019-02-28T19:56:47.236Z,69.53
2019-02-28T19:59:23.322Z,69.55
2019-02-28T20:01:53.130Z,69.54
2019-02-28T20:04:24.919Z,69.55
2019-02-28T20:06:54.659Z,69.56
2019-02-28T20:09:30.187Z,69.57
2019-02-28T20:12:02.750Z,69.56
2019-02-28T20:14:33.862Z,69.60
2019-02-28T20:17:03.855Z,69.58
2019-02-28T20:19:35.763Z,69.61
2019-02-28T20:22:08.686Z,69.64
2019-02-28T20:24:38.229Z,69.60
2019-02-28T20:27:08.512Z,69.62
2019-02-28T20:29:41.878Z,69.67
2019-02-28T20:32:56.426Z,69.70
2019-02-28T20:35:30.049Z,69.69
2019-02-28T20:38:33.087Z,69.71
2019-02-28T20:41:15.742Z,69.69
2019-02-28T20:43:46.660Z,69.73
2019-02-28T20:46:21.650Z,69.68
2019-02-28T20:48:56.028Z,69.65
2019-02-28T20:51:28.049Z,69.66
2019-02-28T20:54:01.740Z,69.70
2019-02-28T20:56:32.137Z,69.70
2019-02-28T20:59:04.230Z,69.65
2019-02-28T21:01:34.459Z,69.66
2019-02-28T21:04:09.807Z,69.65
2019-02-28T21:06:39.435Z,69.66
2019-02-28T21:09:08.934Z,69.66
2019-02-28T21:11:50.926Z,69.67
2019-02-28T21:14:20.181Z,69.69
2019-02-28T21:16:50.029Z,69.66
2019-02-28T21:19:19.708Z,69.65
2019-02-28T21:21:49.335Z,69.65
2019-02-28T21:24:19.005Z,69.67
2019-02-28T21:26:48.953Z,69.71
2019-02-28T21:29:24.638Z,69.70
2019-02-28T21:31:55.850Z,69.71
2019-02-28T21:34:25.934Z,69.72
2019-02-28T21:37:02.168Z,69.73
2019-02-28T21:39:29.293Z,69.72
2019-02-28T21:41:59.544Z,69.72
2019-02-28T21:44:33.087Z,69.73
2019-02-28T21:47:05.277Z,69.76
2019-02-28T21:49:35.326Z,69.74
2019-02-28T21:52:05.250Z,69.75
2019-02-28T21:54:39.364Z,69.74
2019-02-28T21:57:16.260Z,69.74
2019-02-28T21:59:46.016Z,69.75
2019-02-28T22:02:18.740Z,69.72
2019-02-28T22:04:49.511Z,69.71
2019-02-28T22:07:24.772Z,69.71
2019-02-28T22:09:56.558Z,69.73
2019-02-28T22:12:26.232Z,69.73
2019-02-28T22:15:02.325Z,69.76
2019-02-28T22:17:34.091Z,69.76
2019-02-28T22:20:03.920Z,69.76
2019-02-28T22:22:40.658Z,69.75
2019-02-28T22:25:21.604Z,69.77
2019-02-28T22:27:59.577Z,69.73
2019-02-28T22:30:56.187Z,69.75
2019-02-28T22:33:48.820Z,69.75
2019-02-28T22:36:30.503Z,69.75
2019-02-28T22:39:00.387Z,69.75
2019-02-28T22:41:32.046Z,69.75
2019-02-28T22:44:01.591Z,69.74
2019-02-28T22:46:35.044Z,69.75
2019-02-28T22:49:08.688Z,69.75
2019-02-28T22:51:44.120Z,69.77
2019-02-28T22:54:16.442Z,69.77
2019-02-28T22:56:46.211Z,69.79
2019-02-28T22:59:21.261Z,69.79
2019-02-28T23:01:52.085Z,69.79
2019-02-28T23:04:25.947Z,69.78
2019-02-28T23:06:55.724Z,69.80
2019-02-28T23:09:28.475Z,69.80
2019-02-28T23:12:06.144Z,69.79
2019-02-28T23:14:38.136Z,69.81
2019-02-28T23:17:10.214Z,69.81
2019-02-28T23:19:43.256Z,69.78
2019-02-28T23:22:16.900Z,69.81
2019-02-28T23:24:46.704Z,69.85
2019-02-28T23:27:19.796Z,69.83
2019-02-28T23:30:48.493Z,69.82
2019-02-28T23:33:27.022Z,69.83
2019-02-28T23:35:56.629Z,69.80
2019-02-28T23:38:26.198Z,69.80
2019-02-28T23:40:58.048Z,69.79
2019-02-28T23:43:27.494Z,69.82
2019-02-28T23:45:57.122Z,69.80
2019-02-28T23:48:26.689Z,69.81
2019-02-28T23:50:59.735Z,69.83
2019-02-28T23:53:33.104Z,69.82
2019-02-28T23:56:05.540Z,69.83
2019-02-28T23:58:35.206Z,69.83
